sensor_id;sensor_type;location;lat;lon;timestamp;P1;durP1;ratioP1;P2;durP2;ratioP2
24147;SDS011;12309;51.450;-2.624;2022-08-19T00:01:34;3.08;;;0.50;;
24147;SDS011;12309;51.450;-2.624;2022-08-19T00:04:03;0.57;;;0.40;;
24147;SDS011;12309;51.450;-2.624;2022-08-19T00:06:30;2.20;;;0.60;;
24147;SDS011;12309;51.450;-2.624;2022-08-19T00:08:56;2.55;;;0.70;;
24147;SDS011;12309;51.450;-2.624;2022-08-19T00:11:25;4.10;;;0.80;;
24147;SDS011;12309;51.450;-2.624;2022-08-19T00:13:53;5.00;;;0.85;;
24147;SDS011;12309;51.450;-2.624;2022-08-19T00:16:20;9.05;;;1.15;;
24147;SDS011;12309;51.450;-2.624;2022-08-19T00:18:47;10.48;;;1.30;;
24147;SDS011;12309;51.450;-2.624;2022-08-19T00:21:13;8.07;;;1.60;;
24147;SDS011;12309;51.450;-2.624;2022-08-19T00:23:39;9.52;;;1.60;;
24147;SDS011;12309;51.450;-2.624;2022-08-19T00:26:06;9.93;;;1.40;;
24147;SDS011;12309;51.450;-2.624;2022-08-19T00:28:32;8.45;;;1.40;;
24147;SDS011;12309;51.450;-2.624;2022-08-19T00:31:00;10.20;;;1.70;;
24147;SDS011;12309;51.450;-2.624;2022-08-19T00:33:30;13.95;;;1.63;;
24147;SDS011;12309;51.450;-2.624;2022-08-19T00:35:57;8.63;;;1.60;;
24147;SDS011;12309;51.450;-2.624;2022-08-19T00:38:24;11.30;;;1.70;;
24147;SDS011;12309;51.450;-2.624;2022-08-19T00:40:49;9.27;;;1.65;;
24147;SDS011;12309;51.450;-2.624;2022-08-19T00:43:18;9.98;;;1.30;;
24147;SDS011;12309;51.450;-2.624;2022-08-19T00:45:46;6.72;;;1.35;;
24147;SDS011;12309;51.450;-2.624;2022-08-19T00:48:12;5.72;;;1.33;;
24147;SDS011;12309;51.450;-2.624;2022-08-19T00:50:40;15.27;;;2.13;;
24147;SDS011;12309;51.450;-2.624;2022-08-19T00:53:08;12.63;;;1.30;;
24147;SDS011;12309;51.450;-2.624;2022-08-19T00:55:40;14.93;;;1.50;;
24147;SDS011;12309;51.450;-2.624;2022-08-19T00:58:10;12.40;;;1.80;;
24147;SDS011;12309;51.450;-2.624;2022-08-19T01:00:41;9.30;;;1.30;;
24147;SDS011;12309;51.450;-2.624;2022-08-19T01:03:08;9.23;;;1.23;;
24147;SDS011;12309;51.450;-2.624;2022-08-19T01:05:35;10.45;;;1.50;;
24147;SDS011;12309;51.450;-2.624;2022-08-19T01:08:04;10.95;;;1.20;;
24147;SDS011;12309;51.450;-2.624;2022-08-19T01:10:42;3.50;;;0.90;;
24147;SDS011;12309;51.450;-2.624;2022-08-19T01:13:11;4.78;;;1.08;;
24147;SDS011;12309;51.450;-2.624;2022-08-19T01:15:41;4.97;;;0.90;;
24147;SDS011;12309;51.450;-2.624;2022-08-19T01:18:10;6.93;;;1.23;;
24147;SDS011;12309;51.450;-2.624;2022-08-19T01:20:39;6.93;;;1.30;;
24147;SDS011;12309;51.450;-2.624;2022-08-19T01:23:06;5.68;;;1.23;;
24147;SDS011;12309;51.450;-2.624;2022-08-19T01:25:48;6.18;;;1.20;;
24147;SDS011;12309;51.450;-2.624;2022-08-19T01:28:17;5.30;;;1.20;;
24147;SDS011;12309;51.450;-2.624;2022-08-19T01:30:48;4.25;;;1.23;;
24147;SDS011;12309;51.450;-2.624;2022-08-19T01:33:14;10.48;;;1.17;;
24147;SDS011;12309;51.450;-2.624;2022-08-19T01:35:40;8.35;;;1.35;;
24147;SDS011;12309;51.450;-2.624;2022-08-19T01:38:08;5.57;;;1.40;;
24147;SDS011;12309;51.450;-2.624;2022-08-19T01:40:45;8.85;;;1.45;;
24147;SDS011;12309;51.450;-2.624;2022-08-19T01:43:10;6.05;;;1.60;;
24147;SDS011;12309;51.450;-2.624;2022-08-19T01:45:36;6.95;;;1.58;;
24147;SDS011;12309;51.450;-2.624;2022-08-19T01:48:05;8.23;;;1.50;;
24147;SDS011;12309;51.450;-2.624;2022-08-19T01:50:32;12.15;;;1.90;;
24147;SDS011;12309;51.450;-2.624;2022-08-19T01:52:59;10.93;;;2.10;;
24147;SDS011;12309;51.450;-2.624;2022-08-19T01:55:25;6.60;;;1.77;;
24147;SDS011;12309;51.450;-2.624;2022-08-19T01:57:56;8.77;;;1.67;;
24147;SDS011;12309;51.450;-2.624;2022-08-19T02:00:25;8.00;;;1.80;;
24147;SDS011;12309;51.450;-2.624;2022-08-19T02:02:52;8.43;;;2.10;;
24147;SDS011;12309;51.450;-2.624;2022-08-19T02:05:19;7.35;;;1.90;;
24147;SDS011;12309;51.450;-2.624;2022-08-19T02:07:46;11.23;;;2.75;;
24147;SDS011;12309;51.450;-2.624;2022-08-19T02:10:13;10.48;;;2.42;;
24147;SDS011;12309;51.450;-2.624;2022-08-19T02:12:42;10.30;;;2.67;;
24147;SDS011;12309;51.450;-2.624;2022-08-19T02:15:08;10.32;;;2.75;;
24147;SDS011;12309;51.450;-2.624;2022-08-19T02:17:34;14.50;;;3.17;;
24147;SDS011;12309;51.450;-2.624;2022-08-19T02:20:00;11.65;;;2.85;;
24147;SDS011;12309;51.450;-2.624;2022-08-19T02:22:26;17.10;;;3.13;;
24147;SDS011;12309;51.450;-2.624;2022-08-19T02:24:52;8.00;;;2.80;;
24147;SDS011;12309;51.450;-2.624;2022-08-19T02:27:19;11.68;;;3.15;;
24147;SDS011;12309;51.450;-2.624;2022-08-19T02:29:46;9.95;;;3.45;;
24147;SDS011;12309;51.450;-2.624;2022-08-19T02:32:14;11.07;;;2.97;;
24147;SDS011;12309;51.450;-2.624;2022-08-19T02:34:40;14.88;;;2.72;;
24147;SDS011;12309;51.450;-2.624;2022-08-19T02:37:07;9.55;;;2.88;;
24147;SDS011;12309;51.450;-2.624;2022-08-19T02:39:52;13.13;;;2.90;;
24147;SDS011;12309;51.450;-2.624;2022-08-19T02:42:18;10.63;;;3.00;;
24147;SDS011;12309;51.450;-2.624;2022-08-19T02:44:44;8.85;;;2.42;;
24147;SDS011;12309;51.450;-2.624;2022-08-19T02:47:10;8.00;;;2.88;;
24147;SDS011;12309;51.450;-2.624;2022-08-19T02:49:35;10.38;;;2.85;;
24147;SDS011;12309;51.450;-2.624;2022-08-19T02:52:02;16.95;;;2.85;;
24147;SDS011;12309;51.450;-2.624;2022-08-19T02:54:28;22.40;;;3.47;;
24147;SDS011;12309;51.450;-2.624;2022-08-19T02:56:54;15.00;;;3.15;;
24147;SDS011;12309;51.450;-2.624;2022-08-19T02:59:20;13.35;;;2.47;;
24147;SDS011;12309;51.450;-2.624;2022-08-19T03:01:46;18.33;;;2.90;;
24147;SDS011;12309;51.450;-2.624;2022-08-19T03:04:13;14.50;;;2.65;;
24147;SDS011;12309;51.450;-2.624;2022-08-19T03:06:40;19.88;;;3.42;;
24147;SDS011;12309;51.450;-2.624;2022-08-19T03:09:07;13.43;;;2.92;;
24147;SDS011;12309;51.450;-2.624;2022-08-19T03:11:33;17.45;;;3.08;;
24147;SDS011;12309;51.450;-2.624;2022-08-19T03:13:59;18.88;;;3.13;;
24147;SDS011;12309;51.450;-2.624;2022-08-19T03:16:27;11.40;;;2.95;;
24147;SDS011;12309;51.450;-2.624;2022-08-19T03:18:55;20.05;;;2.83;;
24147;SDS011;12309;51.450;-2.624;2022-08-19T03:21:24;14.60;;;2.75;;
24147;SDS011;12309;51.450;-2.624;2022-08-19T03:23:54;19.77;;;3.05;;
24147;SDS011;12309;51.450;-2.624;2022-08-19T03:26:20;18.33;;;2.88;;
24147;SDS011;12309;51.450;-2.624;2022-08-19T03:28:46;10.23;;;2.22;;
24147;SDS011;12309;51.450;-2.624;2022-08-19T03:31:15;12.18;;;2.47;;
24147;SDS011;12309;51.450;-2.624;2022-08-19T03:33:42;14.98;;;3.42;;
24147;SDS011;12309;51.450;-2.624;2022-08-19T03:36:12;11.75;;;2.90;;
24147;SDS011;12309;51.450;-2.624;2022-08-19T03:38:42;18.90;;;3.45;;
24147;SDS011;12309;51.450;-2.624;2022-08-19T03:41:11;21.05;;;3.20;;
24147;SDS011;12309;51.450;-2.624;2022-08-19T03:43:40;16.15;;;2.60;;
24147;SDS011;12309;51.450;-2.624;2022-08-19T03:46:07;13.95;;;3.00;;
24147;SDS011;12309;51.450;-2.624;2022-08-19T03:48:35;16.35;;;3.17;;
24147;SDS011;12309;51.450;-2.624;2022-08-19T03:51:03;15.80;;;3.25;;
24147;SDS011;12309;51.450;-2.624;2022-08-19T03:53:30;21.20;;;3.05;;
24147;SDS011;12309;51.450;-2.624;2022-08-19T03:55:57;20.35;;;3.88;;
24147;SDS011;12309;51.450;-2.624;2022-08-19T03:58:27;27.27;;;3.90;;
24147;SDS011;12309;51.450;-2.624;2022-08-19T04:00:56;23.83;;;3.90;;
24147;SDS011;12309;51.450;-2.624;2022-08-19T04:03:23;19.15;;;3.97;;
24147;SDS011;12309;51.450;-2.624;2022-08-19T04:05:49;20.65;;;4.35;;
24147;SDS011;12309;51.450;-2.624;2022-08-19T04:08:15;27.25;;;4.30;;
24147;SDS011;12309;51.450;-2.624;2022-08-19T04:10:45;15.70;;;4.20;;
24147;SDS011;12309;51.450;-2.624;2022-08-19T04:13:11;28.77;;;5.15;;
24147;SDS011;12309;51.450;-2.624;2022-08-19T04:15:41;19.45;;;4.03;;
24147;SDS011;12309;51.450;-2.624;2022-08-19T04:18:10;26.20;;;4.10;;
24147;SDS011;12309;51.450;-2.624;2022-08-19T04:20:44;27.42;;;4.20;;
24147;SDS011;12309;51.450;-2.624;2022-08-19T04:23:10;23.60;;;4.45;;
24147;SDS011;12309;51.450;-2.624;2022-08-19T04:25:38;21.90;;;4.10;;
24147;SDS011;12309;51.450;-2.624;2022-08-19T04:28:05;28.38;;;4.90;;
24147;SDS011;12309;51.450;-2.624;2022-08-19T04:30:37;30.15;;;4.85;;
24147;SDS011;12309;51.450;-2.624;2022-08-19T04:33:07;26.52;;;5.20;;
24147;SDS011;12309;51.450;-2.624;2022-08-19T04:35:34;28.13;;;4.85;;
24147;SDS011;12309;51.450;-2.624;2022-08-19T04:38:02;27.77;;;5.07;;
24147;SDS011;12309;51.450;-2.624;2022-08-19T04:40:28;24.90;;;4.60;;
24147;SDS011;12309;51.450;-2.624;2022-08-19T04:43:12;27.85;;;5.28;;
24147;SDS011;12309;51.450;-2.624;2022-08-19T04:45:39;34.75;;;5.38;;
24147;SDS011;12309;51.450;-2.624;2022-08-19T04:48:05;25.73;;;4.97;;
24147;SDS011;12309;51.450;-2.624;2022-08-19T04:50:31;34.70;;;5.75;;
24147;SDS011;12309;51.450;-2.624;2022-08-19T04:52:56;23.27;;;5.38;;
24147;SDS011;12309;51.450;-2.624;2022-08-19T04:55:22;28.38;;;5.68;;
24147;SDS011;12309;51.450;-2.624;2022-08-19T04:57:50;22.75;;;5.75;;
24147;SDS011;12309;51.450;-2.624;2022-08-19T05:00:16;22.05;;;4.95;;
24147;SDS011;12309;51.450;-2.624;2022-08-19T05:02:42;23.98;;;6.45;;
24147;SDS011;12309;51.450;-2.624;2022-08-19T05:05:08;19.20;;;5.10;;
24147;SDS011;12309;51.450;-2.624;2022-08-19T05:07:34;24.42;;;5.28;;
24147;SDS011;12309;51.450;-2.624;2022-08-19T05:10:00;25.58;;;5.65;;
24147;SDS011;12309;51.450;-2.624;2022-08-19T05:12:26;23.55;;;4.97;;
24147;SDS011;12309;51.450;-2.624;2022-08-19T05:14:53;21.08;;;5.60;;
24147;SDS011;12309;51.450;-2.624;2022-08-19T05:17:21;31.02;;;7.15;;
24147;SDS011;12309;51.450;-2.624;2022-08-19T05:19:47;21.90;;;6.53;;
24147;SDS011;12309;51.450;-2.624;2022-08-19T05:22:32;32.75;;;7.05;;
24147;SDS011;12309;51.450;-2.624;2022-08-19T05:25:00;33.03;;;7.72;;
24147;SDS011;12309;51.450;-2.624;2022-08-19T05:27:28;30.50;;;8.52;;
24147;SDS011;12309;51.450;-2.624;2022-08-19T05:29:54;35.30;;;8.95;;
24147;SDS011;12309;51.450;-2.624;2022-08-19T05:32:19;34.65;;;10.93;;
24147;SDS011;12309;51.450;-2.624;2022-08-19T05:34:46;32.17;;;10.65;;
24147;SDS011;12309;51.450;-2.624;2022-08-19T05:37:12;32.58;;;12.23;;
24147;SDS011;12309;51.450;-2.624;2022-08-19T05:39:38;38.45;;;12.13;;
24147;SDS011;12309;51.450;-2.624;2022-08-19T05:42:06;35.70;;;12.70;;
24147;SDS011;12309;51.450;-2.624;2022-08-19T05:44:35;26.85;;;11.05;;
24147;SDS011;12309;51.450;-2.624;2022-08-19T05:47:09;29.52;;;9.73;;
24147;SDS011;12309;51.450;-2.624;2022-08-19T05:49:35;29.85;;;8.73;;
24147;SDS011;12309;51.450;-2.624;2022-08-19T05:52:06;28.05;;;8.85;;
24147;SDS011;12309;51.450;-2.624;2022-08-19T05:54:32;27.77;;;7.85;;
24147;SDS011;12309;51.450;-2.624;2022-08-19T05:57:00;25.88;;;8.32;;
24147;SDS011;12309;51.450;-2.624;2022-08-19T05:59:26;19.23;;;5.57;;
24147;SDS011;12309;51.450;-2.624;2022-08-19T06:01:52;20.38;;;5.95;;
24147;SDS011;12309;51.450;-2.624;2022-08-19T06:04:22;18.50;;;6.13;;
24147;SDS011;12309;51.450;-2.624;2022-08-19T06:06:48;21.83;;;5.47;;
24147;SDS011;12309;51.450;-2.624;2022-08-19T06:09:16;20.48;;;6.03;;
24147;SDS011;12309;51.450;-2.624;2022-08-19T06:11:45;21.35;;;5.45;;
24147;SDS011;12309;51.450;-2.624;2022-08-19T06:14:15;23.63;;;6.22;;
24147;SDS011;12309;51.450;-2.624;2022-08-19T06:16:43;23.17;;;5.53;;
24147;SDS011;12309;51.450;-2.624;2022-08-19T06:19:13;23.27;;;5.47;;
24147;SDS011;12309;51.450;-2.624;2022-08-19T06:21:41;15.90;;;4.53;;
24147;SDS011;12309;51.450;-2.624;2022-08-19T06:24:13;17.83;;;4.80;;
24147;SDS011;12309;51.450;-2.624;2022-08-19T06:26:40;18.45;;;3.75;;
24147;SDS011;12309;51.450;-2.624;2022-08-19T06:29:07;18.90;;;4.28;;
24147;SDS011;12309;51.450;-2.624;2022-08-19T06:31:34;14.00;;;3.92;;
24147;SDS011;12309;51.450;-2.624;2022-08-19T06:34:02;17.88;;;3.78;;
24147;SDS011;12309;51.450;-2.624;2022-08-19T06:36:36;20.63;;;3.58;;
24147;SDS011;12309;51.450;-2.624;2022-08-19T06:39:06;16.63;;;3.40;;
24147;SDS011;12309;51.450;-2.624;2022-08-19T06:41:36;24.67;;;3.85;;
24147;SDS011;12309;51.450;-2.624;2022-08-19T06:44:03;14.52;;;3.55;;
24147;SDS011;12309;51.450;-2.624;2022-08-19T06:46:29;21.38;;;3.50;;
24147;SDS011;12309;51.450;-2.624;2022-08-19T06:48:55;16.55;;;3.50;;
24147;SDS011;12309;51.450;-2.624;2022-08-19T06:51:22;15.25;;;2.92;;
24147;SDS011;12309;51.450;-2.624;2022-08-19T06:53:49;18.48;;;3.22;;
24147;SDS011;12309;51.450;-2.624;2022-08-19T06:56:19;17.05;;;3.10;;
24147;SDS011;12309;51.450;-2.624;2022-08-19T06:58:46;12.65;;;2.72;;
24147;SDS011;12309;51.450;-2.624;2022-08-19T07:01:13;15.65;;;3.10;;
24147;SDS011;12309;51.450;-2.624;2022-08-19T07:03:39;15.90;;;2.92;;
24147;SDS011;12309;51.450;-2.624;2022-08-19T07:06:10;22.80;;;3.42;;
24147;SDS011;12309;51.450;-2.624;2022-08-19T07:08:39;14.57;;;2.63;;
24147;SDS011;12309;51.450;-2.624;2022-08-19T07:11:09;12.52;;;2.45;;
24147;SDS011;12309;51.450;-2.624;2022-08-19T07:13:38;16.67;;;2.83;;
24147;SDS011;12309;51.450;-2.624;2022-08-19T07:16:09;17.25;;;2.75;;
24147;SDS011;12309;51.450;-2.624;2022-08-19T07:18:39;17.45;;;2.20;;
24147;SDS011;12309;51.450;-2.624;2022-08-19T07:21:06;16.00;;;2.95;;
24147;SDS011;12309;51.450;-2.624;2022-08-19T07:23:32;12.82;;;2.38;;
24147;SDS011;12309;51.450;-2.624;2022-08-19T07:26:04;13.15;;;2.60;;
24147;SDS011;12309;51.450;-2.624;2022-08-19T07:28:31;14.38;;;2.63;;
24147;SDS011;12309;51.450;-2.624;2022-08-19T07:30:57;12.85;;;2.30;;
24147;SDS011;12309;51.450;-2.624;2022-08-19T07:33:23;19.42;;;2.70;;
24147;SDS011;12309;51.450;-2.624;2022-08-19T07:35:48;26.92;;;3.40;;
24147;SDS011;12309;51.450;-2.624;2022-08-19T07:38:15;18.98;;;2.97;;
24147;SDS011;12309;51.450;-2.624;2022-08-19T07:40:41;16.40;;;2.75;;
24147;SDS011;12309;51.450;-2.624;2022-08-19T07:43:07;22.60;;;3.17;;
24147;SDS011;12309;51.450;-2.624;2022-08-19T07:45:33;17.13;;;3.05;;
24147;SDS011;12309;51.450;-2.624;2022-08-19T07:47:59;20.42;;;2.47;;
24147;SDS011;12309;51.450;-2.624;2022-08-19T07:50:25;18.73;;;3.40;;
24147;SDS011;12309;51.450;-2.624;2022-08-19T07:52:51;16.90;;;3.22;;
24147;SDS011;12309;51.450;-2.624;2022-08-19T07:55:23;14.38;;;2.78;;
24147;SDS011;12309;51.450;-2.624;2022-08-19T07:57:50;18.40;;;2.97;;
24147;SDS011;12309;51.450;-2.624;2022-08-19T08:00:17;22.67;;;3.10;;
24147;SDS011;12309;51.450;-2.624;2022-08-19T08:02:43;17.58;;;2.85;;
24147;SDS011;12309;51.450;-2.624;2022-08-19T08:05:09;12.10;;;2.47;;
24147;SDS011;12309;51.450;-2.624;2022-08-19T08:07:54;11.50;;;2.28;;
24147;SDS011;12309;51.450;-2.624;2022-08-19T08:10:39;17.60;;;2.67;;
24147;SDS011;12309;51.450;-2.624;2022-08-19T08:13:04;17.20;;;2.92;;
24147;SDS011;12309;51.450;-2.624;2022-08-19T08:15:31;16.92;;;2.95;;
24147;SDS011;12309;51.450;-2.624;2022-08-19T08:17:57;22.48;;;3.40;;
24147;SDS011;12309;51.450;-2.624;2022-08-19T08:20:23;13.90;;;3.30;;
24147;SDS011;12309;51.450;-2.624;2022-08-19T08:22:49;21.15;;;2.97;;
24147;SDS011;12309;51.450;-2.624;2022-08-19T08:25:34;15.15;;;2.97;;
24147;SDS011;12309;51.450;-2.624;2022-08-19T08:28:01;13.48;;;2.35;;
24147;SDS011;12309;51.450;-2.624;2022-08-19T08:30:28;13.63;;;2.55;;
24147;SDS011;12309;51.450;-2.624;2022-08-19T08:32:57;14.32;;;2.40;;
24147;SDS011;12309;51.450;-2.624;2022-08-19T08:35:23;15.65;;;2.80;;
24147;SDS011;12309;51.450;-2.624;2022-08-19T08:37:50;12.15;;;2.38;;
24147;SDS011;12309;51.450;-2.624;2022-08-19T08:40:20;10.63;;;2.67;;
24147;SDS011;12309;51.450;-2.624;2022-08-19T08:43:07;12.27;;;2.13;;
24147;SDS011;12309;51.450;-2.624;2022-08-19T08:45:50;9.23;;;2.20;;
24147;SDS011;12309;51.450;-2.624;2022-08-19T08:48:30;10.38;;;2.40;;
24147;SDS011;12309;51.450;-2.624;2022-08-19T08:51:05;10.18;;;2.70;;
24147;SDS011;12309;51.450;-2.624;2022-08-19T08:53:37;11.45;;;2.30;;
24147;SDS011;12309;51.450;-2.624;2022-08-19T08:56:04;13.82;;;2.88;;
24147;SDS011;12309;51.450;-2.624;2022-08-19T08:58:41;12.55;;;2.83;;
24147;SDS011;12309;51.450;-2.624;2022-08-19T09:01:14;13.27;;;2.95;;
24147;SDS011;12309;51.450;-2.624;2022-08-19T09:03:40;11.43;;;2.53;;
24147;SDS011;12309;51.450;-2.624;2022-08-19T09:08:43;11.38;;;2.33;;
24147;SDS011;12309;51.450;-2.624;2022-08-19T09:11:13;16.88;;;3.15;;
24147;SDS011;12309;51.450;-2.624;2022-08-19T09:14:02;12.55;;;2.28;;
24147;SDS011;12309;51.450;-2.624;2022-08-19T09:16:50;11.75;;;2.95;;
24147;SDS011;12309;51.450;-2.624;2022-08-19T09:19:16;8.18;;;1.85;;
24147;SDS011;12309;51.450;-2.624;2022-08-19T09:21:42;14.15;;;2.50;;
24147;SDS011;12309;51.450;-2.624;2022-08-19T09:24:08;15.80;;;2.80;;
24147;SDS011;12309;51.450;-2.624;2022-08-19T09:26:34;13.95;;;2.22;;
24147;SDS011;12309;51.450;-2.624;2022-08-19T09:29:00;17.35;;;2.78;;
24147;SDS011;12309;51.450;-2.624;2022-08-19T09:31:30;19.13;;;2.72;;
24147;SDS011;12309;51.450;-2.624;2022-08-19T09:33:57;11.35;;;2.33;;
24147;SDS011;12309;51.450;-2.624;2022-08-19T09:36:25;10.40;;;1.92;;
24147;SDS011;12309;51.450;-2.624;2022-08-19T09:38:54;13.35;;;2.97;;
24147;SDS011;12309;51.450;-2.624;2022-08-19T09:41:21;12.73;;;2.20;;
24147;SDS011;12309;51.450;-2.624;2022-08-19T09:43:49;16.10;;;3.05;;
24147;SDS011;12309;51.450;-2.624;2022-08-19T09:46:19;12.27;;;2.45;;
24147;SDS011;12309;51.450;-2.624;2022-08-19T09:48:46;17.90;;;2.90;;
24147;SDS011;12309;51.450;-2.624;2022-08-19T09:51:17;18.83;;;3.35;;
24147;SDS011;12309;51.450;-2.624;2022-08-19T09:53:46;11.25;;;2.75;;
24147;SDS011;12309;51.450;-2.624;2022-08-19T09:56:15;14.82;;;2.80;;
24147;SDS011;12309;51.450;-2.624;2022-08-19T09:58:42;17.42;;;3.55;;
24147;SDS011;12309;51.450;-2.624;2022-08-19T10:01:08;14.75;;;2.50;;
24147;SDS011;12309;51.450;-2.624;2022-08-19T10:03:35;12.43;;;2.92;;
24147;SDS011;12309;51.450;-2.624;2022-08-19T10:06:02;16.83;;;2.90;;
24147;SDS011;12309;51.450;-2.624;2022-08-19T10:08:31;13.73;;;2.78;;
24147;SDS011;12309;51.450;-2.624;2022-08-19T10:10:58;15.98;;;2.92;;
24147;SDS011;12309;51.450;-2.624;2022-08-19T10:13:25;15.60;;;2.92;;
24147;SDS011;12309;51.450;-2.624;2022-08-19T10:15:53;17.98;;;3.50;;
24147;SDS011;12309;51.450;-2.624;2022-08-19T10:18:21;15.13;;;2.97;;
24147;SDS011;12309;51.450;-2.624;2022-08-19T10:20:48;16.65;;;3.92;;
24147;SDS011;12309;51.450;-2.624;2022-08-19T10:23:15;18.73;;;3.40;;
24147;SDS011;12309;51.450;-2.624;2022-08-19T10:25:42;24.48;;;3.60;;
24147;SDS011;12309;51.450;-2.624;2022-08-19T10:28:08;20.27;;;3.35;;
24147;SDS011;12309;51.450;-2.624;2022-08-19T10:30:37;15.63;;;2.90;;
24147;SDS011;12309;51.450;-2.624;2022-08-19T10:33:04;17.15;;;3.47;;
24147;SDS011;12309;51.450;-2.624;2022-08-19T10:35:30;13.10;;;2.85;;
24147;SDS011;12309;51.450;-2.624;2022-08-19T10:37:56;17.88;;;2.75;;
24147;SDS011;12309;51.450;-2.624;2022-08-19T10:40:26;20.10;;;3.08;;
24147;SDS011;12309;51.450;-2.624;2022-08-19T10:42:53;16.95;;;2.70;;
24147;SDS011;12309;51.450;-2.624;2022-08-19T10:45:20;12.90;;;3.40;;
24147;SDS011;12309;51.450;-2.624;2022-08-19T10:47:51;15.18;;;3.58;;
24147;SDS011;12309;51.450;-2.624;2022-08-19T10:50:18;12.73;;;2.42;;
24147;SDS011;12309;51.450;-2.624;2022-08-19T10:53:06;15.85;;;2.78;;
24147;SDS011;12309;51.450;-2.624;2022-08-19T10:55:36;12.30;;;2.65;;
24147;SDS011;12309;51.450;-2.624;2022-08-19T10:58:20;14.32;;;3.00;;
24147;SDS011;12309;51.450;-2.624;2022-08-19T11:00:55;13.82;;;2.95;;
24147;SDS011;12309;51.450;-2.624;2022-08-19T11:03:23;13.48;;;3.05;;
24147;SDS011;12309;51.450;-2.624;2022-08-19T11:05:57;10.90;;;2.45;;
24147;SDS011;12309;51.450;-2.624;2022-08-19T11:08:34;16.80;;;3.20;;
24147;SDS011;12309;51.450;-2.624;2022-08-19T11:11:02;11.32;;;2.65;;
24147;SDS011;12309;51.450;-2.624;2022-08-19T11:13:31;15.40;;;3.00;;
24147;SDS011;12309;51.450;-2.624;2022-08-19T11:16:02;18.45;;;3.72;;
24147;SDS011;12309;51.450;-2.624;2022-08-19T11:18:32;13.27;;;3.30;;
24147;SDS011;12309;51.450;-2.624;2022-08-19T11:21:05;10.88;;;2.72;;
24147;SDS011;12309;51.450;-2.624;2022-08-19T11:23:36;15.35;;;3.10;;
24147;SDS011;12309;51.450;-2.624;2022-08-19T11:26:02;16.00;;;3.53;;
24147;SDS011;12309;51.450;-2.624;2022-08-19T11:28:28;17.63;;;3.58;;
24147;SDS011;12309;51.450;-2.624;2022-08-19T11:30:54;9.63;;;2.78;;
24147;SDS011;12309;51.450;-2.624;2022-08-19T11:33:19;10.50;;;2.95;;
24147;SDS011;12309;51.450;-2.624;2022-08-19T11:35:45;12.95;;;2.75;;
24147;SDS011;12309;51.450;-2.624;2022-08-19T11:38:11;12.93;;;2.90;;
24147;SDS011;12309;51.450;-2.624;2022-08-19T11:40:38;15.00;;;3.25;;
24147;SDS011;12309;51.450;-2.624;2022-08-19T11:43:05;12.75;;;3.00;;
24147;SDS011;12309;51.450;-2.624;2022-08-19T11:45:31;15.82;;;3.28;;
24147;SDS011;12309;51.450;-2.624;2022-08-19T11:47:56;14.40;;;3.40;;
24147;SDS011;12309;51.450;-2.624;2022-08-19T11:50:22;12.15;;;3.00;;
24147;SDS011;12309;51.450;-2.624;2022-08-19T11:52:48;9.75;;;2.40;;
24147;SDS011;12309;51.450;-2.624;2022-08-19T11:55:14;13.70;;;2.78;;
24147;SDS011;12309;51.450;-2.624;2022-08-19T11:57:41;17.63;;;2.75;;
24147;SDS011;12309;51.450;-2.624;2022-08-19T12:00:08;14.35;;;2.67;;
24147;SDS011;12309;51.450;-2.624;2022-08-19T12:02:37;11.68;;;2.75;;
24147;SDS011;12309;51.450;-2.624;2022-08-19T12:05:02;15.43;;;3.20;;
24147;SDS011;12309;51.450;-2.624;2022-08-19T12:07:28;16.65;;;3.30;;
24147;SDS011;12309;51.450;-2.624;2022-08-19T12:09:56;11.93;;;2.63;;
24147;SDS011;12309;51.450;-2.624;2022-08-19T12:12:22;11.38;;;2.90;;
24147;SDS011;12309;51.450;-2.624;2022-08-19T12:14:49;16.58;;;3.05;;
24147;SDS011;12309;51.450;-2.624;2022-08-19T12:17:21;14.52;;;3.03;;
24147;SDS011;12309;51.450;-2.624;2022-08-19T12:19:48;17.95;;;2.80;;
24147;SDS011;12309;51.450;-2.624;2022-08-19T12:22:13;17.85;;;3.22;;
24147;SDS011;12309;51.450;-2.624;2022-08-19T12:24:39;10.18;;;2.60;;
24147;SDS011;12309;51.450;-2.624;2022-08-19T12:27:05;12.82;;;2.72;;
24147;SDS011;12309;51.450;-2.624;2022-08-19T12:29:30;14.50;;;2.47;;
24147;SDS011;12309;51.450;-2.624;2022-08-19T12:31:57;18.92;;;3.13;;
24147;SDS011;12309;51.450;-2.624;2022-08-19T12:34:26;18.17;;;3.03;;
24147;SDS011;12309;51.450;-2.624;2022-08-19T12:37:00;12.13;;;2.60;;
24147;SDS011;12309;51.450;-2.624;2022-08-19T12:39:27;24.88;;;4.95;;
24147;SDS011;12309;51.450;-2.624;2022-08-19T12:41:53;14.40;;;3.35;;
24147;SDS011;12309;51.450;-2.624;2022-08-19T12:44:19;13.55;;;2.72;;
24147;SDS011;12309;51.450;-2.624;2022-08-19T12:46:45;6.93;;;2.20;;
24147;SDS011;12309;51.450;-2.624;2022-08-19T12:49:11;10.82;;;3.22;;
24147;SDS011;12309;51.450;-2.624;2022-08-19T12:51:37;15.00;;;2.22;;
24147;SDS011;12309;51.450;-2.624;2022-08-19T12:54:03;11.77;;;2.80;;
24147;SDS011;12309;51.450;-2.624;2022-08-19T12:56:29;14.68;;;3.00;;
24147;SDS011;12309;51.450;-2.624;2022-08-19T12:58:56;9.48;;;2.60;;
24147;SDS011;12309;51.450;-2.624;2022-08-19T13:01:21;12.23;;;2.63;;
24147;SDS011;12309;51.450;-2.624;2022-08-19T13:03:47;15.23;;;3.17;;
24147;SDS011;12309;51.450;-2.624;2022-08-19T13:06:13;12.02;;;2.75;;
24147;SDS011;12309;51.450;-2.624;2022-08-19T13:08:39;12.02;;;2.60;;
24147;SDS011;12309;51.450;-2.624;2022-08-19T13:11:12;12.63;;;3.08;;
24147;SDS011;12309;51.450;-2.624;2022-08-19T13:13:40;16.90;;;2.33;;
24147;SDS011;12309;51.450;-2.624;2022-08-19T13:16:08;12.55;;;2.22;;
24147;SDS011;12309;51.450;-2.624;2022-08-19T13:18:36;13.35;;;2.78;;
24147;SDS011;12309;51.450;-2.624;2022-08-19T13:21:03;11.88;;;2.80;;
24147;SDS011;12309;51.450;-2.624;2022-08-19T13:23:31;10.77;;;2.58;;
24147;SDS011;12309;51.450;-2.624;2022-08-19T13:25:59;10.73;;;2.40;;
24147;SDS011;12309;51.450;-2.624;2022-08-19T13:28:27;10.50;;;2.75;;
24147;SDS011;12309;51.450;-2.624;2022-08-19T13:31:17;16.67;;;2.50;;
24147;SDS011;12309;51.450;-2.624;2022-08-19T13:34:02;12.32;;;2.38;;
24147;SDS011;12309;51.450;-2.624;2022-08-19T13:36:29;15.55;;;2.85;;
24147;SDS011;12309;51.450;-2.624;2022-08-19T13:38:55;9.52;;;2.38;;
24147;SDS011;12309;51.450;-2.624;2022-08-19T13:41:21;8.63;;;2.03;;
24147;SDS011;12309;51.450;-2.624;2022-08-19T13:43:47;9.77;;;2.22;;
24147;SDS011;12309;51.450;-2.624;2022-08-19T13:46:14;13.35;;;2.38;;
24147;SDS011;12309;51.450;-2.624;2022-08-19T13:48:39;11.90;;;2.22;;
24147;SDS011;12309;51.450;-2.624;2022-08-19T13:51:08;12.88;;;2.70;;
24147;SDS011;12309;51.450;-2.624;2022-08-19T13:53:38;9.63;;;2.13;;
24147;SDS011;12309;51.450;-2.624;2022-08-19T13:56:05;11.30;;;2.22;;
24147;SDS011;12309;51.450;-2.624;2022-08-19T13:58:32;11.00;;;2.10;;
24147;SDS011;12309;51.450;-2.624;2022-08-19T14:00:58;11.90;;;2.40;;
24147;SDS011;12309;51.450;-2.624;2022-08-19T14:03:24;9.95;;;1.85;;
24147;SDS011;12309;51.450;-2.624;2022-08-19T14:05:50;11.98;;;2.08;;
24147;SDS011;12309;51.450;-2.624;2022-08-19T14:08:16;15.63;;;2.92;;
24147;SDS011;12309;51.450;-2.624;2022-08-19T14:10:43;8.13;;;2.00;;
24147;SDS011;12309;51.450;-2.624;2022-08-19T14:13:09;7.05;;;1.80;;
24147;SDS011;12309;51.450;-2.624;2022-08-19T14:15:37;8.85;;;1.77;;
24147;SDS011;12309;51.450;-2.624;2022-08-19T14:18:03;8.50;;;1.70;;
24147;SDS011;12309;51.450;-2.624;2022-08-19T14:20:29;11.25;;;1.77;;
24147;SDS011;12309;51.450;-2.624;2022-08-19T14:22:54;10.98;;;1.98;;
24147;SDS011;12309;51.450;-2.624;2022-08-19T14:25:23;9.23;;;1.60;;
24147;SDS011;12309;51.450;-2.624;2022-08-19T14:27:51;9.13;;;1.70;;
24147;SDS011;12309;51.450;-2.624;2022-08-19T14:30:20;9.18;;;1.92;;
24147;SDS011;12309;51.450;-2.624;2022-08-19T14:32:52;6.25;;;1.58;;